sensor_id;sensor_type;location;lat;lon;timestamp;temperature;humidity
83289;DHT22;73193;50.866;5.420;2024-01-30T00:00:29;10.60;62.20
83289;DHT22;73193;50.866;5.420;2024-01-30T00:01:59;10.60;62.30
83289;DHT22;73193;50.866;5.420;2024-01-30T00:03:30;10.50;62.40
83289;DHT22;73193;50.866;5.420;2024-01-30T00:05:01;10.50;62.30
83289;DHT22;73193;50.866;5.420;2024-01-30T00:06:31;10.50;62.30
83289;DHT22;73193;50.866;5.420;2024-01-30T00:08:02;10.40;62.50
83289;DHT22;73193;50.866;5.420;2024-01-30T00:09:33;10.40;62.70
83289;DHT22;73193;50.866;5.420;2024-01-30T00:11:04;10.40;62.70
83289;DHT22;73193;50.866;5.420;2024-01-30T00:12:35;10.40;62.60
83289;DHT22;73193;50.866;5.420;2024-01-30T00:14:06;10.40;62.50
83289;DHT22;73193;50.866;5.420;2024-01-30T00:15:37;10.40;62.70
83289;DHT22;73193;50.866;5.420;2024-01-30T00:17:08;10.40;62.50
83289;DHT22;73193;50.866;5.420;2024-01-30T00:18:38;10.40;62.50
83289;DHT22;73193;50.866;5.420;2024-01-30T00:20:10;10.30;62.90
83289;DHT22;73193;50.866;5.420;2024-01-30T00:21:41;10.40;62.70
83289;DHT22;73193;50.866;5.420;2024-01-30T00:23:12;10.30;63.00
83289;DHT22;73193;50.866;5.420;2024-01-30T00:24:43;10.30;62.80
83289;DHT22;73193;50.866;5.420;2024-01-30T00:26:14;10.30;62.80
83289;DHT22;73193;50.866;5.420;2024-01-30T00:27:47;10.30;62.90
83289;DHT22;73193;50.866;5.420;2024-01-30T00:29:18;10.40;62.90
83289;DHT22;73193;50.866;5.420;2024-01-30T00:30:50;10.30;62.80
83289;DHT22;73193;50.866;5.420;2024-01-30T00:32:20;10.30;63.00
83289;DHT22;73193;50.866;5.420;2024-01-30T00:33:51;10.30;63.10
83289;DHT22;73193;50.866;5.420;2024-01-30T00:35:23;10.30;62.80
83289;DHT22;73193;50.866;5.420;2024-01-30T00:36:54;10.40;62.80
83289;DHT22;73193;50.866;5.420;2024-01-30T00:38:25;10.40;62.80
83289;DHT22;73193;50.866;5.420;2024-01-30T00:39:55;10.40;62.60
83289;DHT22;73193;50.866;5.420;2024-01-30T00:41:26;10.40;63.00
83289;DHT22;73193;50.866;5.420;2024-01-30T00:42:57;10.40;62.90
83289;DHT22;73193;50.866;5.420;2024-01-30T00:44:28;10.40;63.00
83289;DHT22;73193;50.866;5.420;2024-01-30T00:45:59;10.40;62.70
83289;DHT22;73193;50.866;5.420;2024-01-30T00:47:29;10.40;62.80
83289;DHT22;73193;50.866;5.420;2024-01-30T00:49:00;10.40;63.10
83289;DHT22;73193;50.866;5.420;2024-01-30T00:50:31;10.40;62.90
83289;DHT22;73193;50.866;5.420;2024-01-30T00:52:02;10.40;62.90
83289;DHT22;73193;50.866;5.420;2024-01-30T00:53:32;10.50;62.70
83289;DHT22;73193;50.866;5.420;2024-01-30T00:55:04;10.50;62.50
83289;DHT22;73193;50.866;5.420;2024-01-30T00:56:34;10.50;62.90
83289;DHT22;73193;50.866;5.420;2024-01-30T00:58:05;10.50;62.50
83289;DHT22;73193;50.866;5.420;2024-01-30T00:59:36;10.60;62.30
83289;DHT22;73193;50.866;5.420;2024-01-30T01:01:06;10.50;62.50
83289;DHT22;73193;50.866;5.420;2024-01-30T01:02:38;10.50;62.50
83289;DHT22;73193;50.866;5.420;2024-01-30T01:04:09;10.50;62.30
83289;DHT22;73193;50.866;5.420;2024-01-30T01:05:40;10.50;62.70
83289;DHT22;73193;50.866;5.420;2024-01-30T01:07:11;10.50;62.50
83289;DHT22;73193;50.866;5.420;2024-01-30T01:08:42;10.50;62.50
83289;DHT22;73193;50.866;5.420;2024-01-30T01:10:13;10.40;62.90
83289;DHT22;73193;50.866;5.420;2024-01-30T01:11:44;10.50;62.60
83289;DHT22;73193;50.866;5.420;2024-01-30T01:13:14;10.50;62.40
83289;DHT22;73193;50.866;5.420;2024-01-30T01:14:45;10.40;62.70
83289;DHT22;73193;50.866;5.420;2024-01-30T01:16:16;10.40;62.50
83289;DHT22;73193;50.866;5.420;2024-01-30T01:17:47;10.40;62.70
83289;DHT22;73193;50.866;5.420;2024-01-30T01:19:17;10.40;62.60
83289;DHT22;73193;50.866;5.420;2024-01-30T01:20:48;10.40;62.80
83289;DHT22;73193;50.866;5.420;2024-01-30T01:22:19;10.40;62.90
83289;DHT22;73193;50.866;5.420;2024-01-30T01:23:50;10.30;63.30
83289;DHT22;73193;50.866;5.420;2024-01-30T01:25:21;10.40;62.90
83289;DHT22;73193;50.866;5.420;2024-01-30T01:26:52;10.40;62.90
83289;DHT22;73193;50.866;5.420;2024-01-30T01:28:22;10.40;62.90
83289;DHT22;73193;50.866;5.420;2024-01-30T01:29:53;10.50;62.90
83289;DHT22;73193;50.866;5.420;2024-01-30T01:31:24;10.50;62.70
83289;DHT22;73193;50.866;5.420;2024-01-30T01:32:55;10.50;62.70
83289;DHT22;73193;50.866;5.420;2024-01-30T01:34:26;10.40;62.90
83289;DHT22;73193;50.866;5.420;2024-01-30T01:35:57;10.50;62.80
83289;DHT22;73193;50.866;5.420;2024-01-30T01:37:28;10.40;63.10
83289;DHT22;73193;50.866;5.420;2024-01-30T01:38:59;10.50;62.90
83289;DHT22;73193;50.866;5.420;2024-01-30T01:40:29;10.60;62.80
83289;DHT22;73193;50.866;5.420;2024-01-30T01:42:00;10.60;62.90
83289;DHT22;73193;50.866;5.420;2024-01-30T01:43:31;10.60;62.90
83289;DHT22;73193;50.866;5.420;2024-01-30T01:45:01;10.60;62.80
83289;DHT22;73193;50.866;5.420;2024-01-30T01:46:34;10.60;63.00
83289;DHT22;73193;50.866;5.420;2024-01-30T01:48:05;10.70;62.80
83289;DHT22;73193;50.866;5.420;2024-01-30T01:49:36;10.70;62.60
83289;DHT22;73193;50.866;5.420;2024-01-30T01:51:06;10.80;62.30
83289;DHT22;73193;50.866;5.420;2024-01-30T01:52:39;10.60;62.70
83289;DHT22;73193;50.866;5.420;2024-01-30T01:54:11;10.60;63.00
83289;DHT22;73193;50.866;5.420;2024-01-30T01:55:42;10.70;62.50
83289;DHT22;73193;50.866;5.420;2024-01-30T01:57:13;10.80;62.40
83289;DHT22;73193;50.866;5.420;2024-01-30T01:58:45;10.90;62.30
83289;DHT22;73193;50.866;5.420;2024-01-30T02:00:17;10.90;62.00
83289;DHT22;73193;50.866;5.420;2024-01-30T02:01:49;10.80;62.20
83289;DHT22;73193;50.866;5.420;2024-01-30T02:03:21;10.80;62.40
83289;DHT22;73193;50.866;5.420;2024-01-30T02:04:52;10.80;62.50
83289;DHT22;73193;50.866;5.420;2024-01-30T02:06:22;10.80;62.50
83289;DHT22;73193;50.866;5.420;2024-01-30T02:07:54;10.80;62.30
83289;DHT22;73193;50.866;5.420;2024-01-30T02:09:24;10.90;62.30
83289;DHT22;73193;50.866;5.420;2024-01-30T02:10:55;10.80;62.20
83289;DHT22;73193;50.866;5.420;2024-01-30T02:12:26;10.80;62.40
83289;DHT22;73193;50.866;5.420;2024-01-30T02:13:57;10.90;62.30
83289;DHT22;73193;50.866;5.420;2024-01-30T02:15:28;10.80;62.30
83289;DHT22;73193;50.866;5.420;2024-01-30T02:16:59;10.90;62.30
83289;DHT22;73193;50.866;5.420;2024-01-30T02:18:30;10.90;62.20
83289;DHT22;73193;50.866;5.420;2024-01-30T02:20:01;10.90;62.10
83289;DHT22;73193;50.866;5.420;2024-01-30T02:21:31;10.80;62.40
83289;DHT22;73193;50.866;5.420;2024-01-30T02:23:02;10.80;62.50
83289;DHT22;73193;50.866;5.420;2024-01-30T02:24:33;10.70;63.00
83289;DHT22;73193;50.866;5.420;2024-01-30T02:26:03;10.80;63.00
83289;DHT22;73193;50.866;5.420;2024-01-30T02:27:34;10.80;62.90
83289;DHT22;73193;50.866;5.420;2024-01-30T02:29:05;10.90;62.80
83289;DHT22;73193;50.866;5.420;2024-01-30T02:30:35;11.00;62.80
83289;DHT22;73193;50.866;5.420;2024-01-30T02:32:06;11.00;62.80
83289;DHT22;73193;50.866;5.420;2024-01-30T02:33:37;11.00;62.60
83289;DHT22;73193;50.866;5.420;2024-01-30T02:35:08;11.00;62.90
83289;DHT22;73193;50.866;5.420;2024-01-30T02:36:42;11.10;62.60
83289;DHT22;73193;50.866;5.420;2024-01-30T02:38:12;11.10;62.60
83289;DHT22;73193;50.866;5.420;2024-01-30T02:39:43;11.10;62.70
83289;DHT22;73193;50.866;5.420;2024-01-30T02:41:13;11.10;62.70
83289;DHT22;73193;50.866;5.420;2024-01-30T02:42:45;11.10;62.60
83289;DHT22;73193;50.866;5.420;2024-01-30T02:44:15;11.10;62.50
83289;DHT22;73193;50.866;5.420;2024-01-30T02:45:46;11.10;62.20
83289;DHT22;73193;50.866;5.420;2024-01-30T02:47:16;11.20;62.10
83289;DHT22;73193;50.866;5.420;2024-01-30T02:48:47;11.30;62.10
83289;DHT22;73193;50.866;5.420;2024-01-30T02:50:18;11.30;62.00
83289;DHT22;73193;50.866;5.420;2024-01-30T02:51:48;11.20;61.90
83289;DHT22;73193;50.866;5.420;2024-01-30T02:53:19;11.10;62.30
83289;DHT22;73193;50.866;5.420;2024-01-30T02:54:50;11.00;62.70
83289;DHT22;73193;50.866;5.420;2024-01-30T02:56:20;11.00;62.70
83289;DHT22;73193;50.866;5.420;2024-01-30T02:57:51;11.10;62.70
83289;DHT22;73193;50.866;5.420;2024-01-30T02:59:22;11.10;62.80
83289;DHT22;73193;50.866;5.420;2024-01-30T03:00:52;11.10;62.60
83289;DHT22;73193;50.866;5.420;2024-01-30T03:02:23;11.10;62.40
83289;DHT22;73193;50.866;5.420;2024-01-30T03:03:54;11.10;62.30
83289;DHT22;73193;50.866;5.420;2024-01-30T03:05:24;11.10;62.50
83289;DHT22;73193;50.866;5.420;2024-01-30T03:06:55;11.00;62.70
83289;DHT22;73193;50.866;5.420;2024-01-30T03:08:26;11.00;62.80
83289;DHT22;73193;50.866;5.420;2024-01-30T03:09:56;11.00;63.20
83289;DHT22;73193;50.866;5.420;2024-01-30T03:11:27;11.00;63.40
83289;DHT22;73193;50.866;5.420;2024-01-30T03:12:57;11.10;63.40
83289;DHT22;73193;50.866;5.420;2024-01-30T03:14:30;11.10;63.30
83289;DHT22;73193;50.866;5.420;2024-01-30T03:16:01;11.20;63.00
83289;DHT22;73193;50.866;5.420;2024-01-30T03:17:32;11.30;62.90
83289;DHT22;73193;50.866;5.420;2024-01-30T03:19:02;11.40;62.60
83289;DHT22;73193;50.866;5.420;2024-01-30T03:20:34;11.40;62.50
83289;DHT22;73193;50.866;5.420;2024-01-30T03:22:04;11.50;62.50
83289;DHT22;73193;50.866;5.420;2024-01-30T03:23:35;11.50;62.40
83289;DHT22;73193;50.866;5.420;2024-01-30T03:25:06;11.50;62.50
83289;DHT22;73193;50.866;5.420;2024-01-30T03:26:37;11.50;62.30
83289;DHT22;73193;50.866;5.420;2024-01-30T03:28:07;11.60;62.30
83289;DHT22;73193;50.866;5.420;2024-01-30T03:29:38;11.60;62.30
83289;DHT22;73193;50.866;5.420;2024-01-30T03:31:08;11.60;62.20
83289;DHT22;73193;50.866;5.420;2024-01-30T03:32:39;11.60;62.20
83289;DHT22;73193;50.866;5.420;2024-01-30T03:34:10;11.50;62.30
83289;DHT22;73193;50.866;5.420;2024-01-30T03:35:40;11.50;62.50
83289;DHT22;73193;50.866;5.420;2024-01-30T03:37:11;11.60;62.30
83289;DHT22;73193;50.866;5.420;2024-01-30T03:38:42;11.60;62.20
83289;DHT22;73193;50.866;5.420;2024-01-30T03:40:12;11.50;62.40
83289;DHT22;73193;50.866;5.420;2024-01-30T03:41:43;11.50;62.60
83289;DHT22;73193;50.866;5.420;2024-01-30T03:43:14;11.50;62.60
83289;DHT22;73193;50.866;5.420;2024-01-30T03:44:45;11.50;62.80
83289;DHT22;73193;50.866;5.420;2024-01-30T03:46:16;11.60;62.40
83289;DHT22;73193;50.866;5.420;2024-01-30T03:47:46;11.50;62.50
83289;DHT22;73193;50.866;5.420;2024-01-30T03:49:17;11.50;62.70
83289;DHT22;73193;50.866;5.420;2024-01-30T03:50:48;11.60;62.40
83289;DHT22;73193;50.866;5.420;2024-01-30T03:52:19;11.70;62.30
83289;DHT22;73193;50.866;5.420;2024-01-30T03:53:49;11.70;62.20
83289;DHT22;73193;50.866;5.420;2024-01-30T03:55:20;11.70;62.30
83289;DHT22;73193;50.866;5.420;2024-01-30T03:56:51;11.60;62.40
83289;DHT22;73193;50.866;5.420;2024-01-30T03:58:21;11.50;62.80
83289;DHT22;73193;50.866;5.420;2024-01-30T03:59:52;11.50;63.00
83289;DHT22;73193;50.866;5.420;2024-01-30T04:01:23;11.50;62.90
83289;DHT22;73193;50.866;5.420;2024-01-30T04:02:54;11.50;63.00
83289;DHT22;73193;50.866;5.420;2024-01-30T04:04:24;11.50;62.90
83289;DHT22;73193;50.866;5.420;2024-01-30T04:05:55;11.50;63.00
83289;DHT22;73193;50.866;5.420;2024-01-30T04:07:26;11.50;63.20
83289;DHT22;73193;50.866;5.420;2024-01-30T04:08:56;11.50;62.80
83289;DHT22;73193;50.866;5.420;2024-01-30T04:10:27;11.50;62.80
83289;DHT22;73193;50.866;5.420;2024-01-30T04:11:58;11.50;62.70
83289;DHT22;73193;50.866;5.420;2024-01-30T04:13:28;11.50;62.80
83289;DHT22;73193;50.866;5.420;2024-01-30T04:14:59;11.50;62.60
83289;DHT22;73193;50.866;5.420;2024-01-30T04:16:30;11.50;62.60
83289;DHT22;73193;50.866;5.420;2024-01-30T04:18:00;11.50;63.00
83289;DHT22;73193;50.866;5.420;2024-01-30T04:19:31;11.50;62.80
83289;DHT22;73193;50.866;5.420;2024-01-30T04:21:02;11.40;63.00
83289;DHT22;73193;50.866;5.420;2024-01-30T04:22:32;11.40;62.90
83289;DHT22;73193;50.866;5.420;2024-01-30T04:24:03;11.40;63.30
83289;DHT22;73193;50.866;5.420;2024-01-30T04:25:34;11.40;63.00
83289;DHT22;73193;50.866;5.420;2024-01-30T04:27:04;11.40;63.00
83289;DHT22;73193;50.866;5.420;2024-01-30T04:28:35;11.30;63.00
83289;DHT22;73193;50.866;5.420;2024-01-30T04:30:09;11.30;63.20
83289;DHT22;73193;50.866;5.420;2024-01-30T04:31:40;11.30;63.30
83289;DHT22;73193;50.866;5.420;2024-01-30T04:33:10;11.30;63.40
83289;DHT22;73193;50.866;5.420;2024-01-30T04:34:41;11.30;63.20
83289;DHT22;73193;50.866;5.420;2024-01-30T04:36:12;11.40;63.20
83289;DHT22;73193;50.866;5.420;2024-01-30T04:37:43;11.40;62.90
83289;DHT22;73193;50.866;5.420;2024-01-30T04:39:13;11.30;63.10
83289;DHT22;73193;50.866;5.420;2024-01-30T04:40:44;11.30;63.00
83289;DHT22;73193;50.866;5.420;2024-01-30T04:42:15;11.30;63.20
83289;DHT22;73193;50.866;5.420;2024-01-30T04:43:45;11.40;63.00
83289;DHT22;73193;50.866;5.420;2024-01-30T04:45:16;11.30;63.00
83289;DHT22;73193;50.866;5.420;2024-01-30T04:46:47;11.30;63.10
83289;DHT22;73193;50.866;5.420;2024-01-30T04:48:18;11.30;63.10
83289;DHT22;73193;50.866;5.420;2024-01-30T04:49:48;11.30;63.10
83289;DHT22;73193;50.866;5.420;2024-01-30T04:51:20;11.30;63.30
83289;DHT22;73193;50.866;5.420;2024-01-30T04:52:51;11.30;63.40
83289;DHT22;73193;50.866;5.420;2024-01-30T04:54:22;11.30;63.20
83289;DHT22;73193;50.866;5.420;2024-01-30T04:55:52;11.30;63.20
83289;DHT22;73193;50.866;5.420;2024-01-30T04:57:23;11.30;63.30
83289;DHT22;73193;50.866;5.420;2024-01-30T04:58:53;11.20;63.60
83289;DHT22;73193;50.866;5.420;2024-01-30T05:00:24;11.30;63.70
83289;DHT22;73193;50.866;5.420;2024-01-30T05:01:55;11.30;63.60
83289;DHT22;73193;50.866;5.420;2024-01-30T05:03:25;11.30;63.40
83289;DHT22;73193;50.866;5.420;2024-01-30T05:04:56;11.40;63.20
83289;DHT22;73193;50.866;5.420;2024-01-30T05:06:27;11.50;63.00
83289;DHT22;73193;50.866;5.420;2024-01-30T05:07:58;11.50;63.00
83289;DHT22;73193;50.866;5.420;2024-01-30T05:09:28;11.50;63.00
83289;DHT22;73193;50.866;5.420;2024-01-30T05:11:03;11.50;63.10
83289;DHT22;73193;50.866;5.420;2024-01-30T05:12:36;11.40;63.20
83289;DHT22;73193;50.866;5.420;2024-01-30T05:14:07;11.40;63.40
83289;DHT22;73193;50.866;5.420;2024-01-30T05:15:39;11.40;63.40
83289;DHT22;73193;50.866;5.420;2024-01-30T05:17:09;11.40;63.40
83289;DHT22;73193;50.866;5.420;2024-01-30T05:18:40;11.40;63.40
83289;DHT22;73193;50.866;5.420;2024-01-30T05:20:11;11.40;63.30
83289;DHT22;73193;50.866;5.420;2024-01-30T05:21:42;11.50;63.20
83289;DHT22;73193;50.866;5.420;2024-01-30T05:23:13;11.50;63.20
83289;DHT22;73193;50.866;5.420;2024-01-30T05:24:44;11.50;63.20
83289;DHT22;73193;50.866;5.420;2024-01-30T05:26:15;11.50;63.30
83289;DHT22;73193;50.866;5.420;2024-01-30T05:27:46;11.40;63.40
83289;DHT22;73193;50.866;5.420;2024-01-30T05:29:16;11.40;63.80
83289;DHT22;73193;50.866;5.420;2024-01-30T05:30:47;11.40;63.60
83289;DHT22;73193;50.866;5.420;2024-01-30T05:32:18;11.50;63.70
83289;DHT22;73193;50.866;5.420;2024-01-30T05:33:48;11.50;63.40
83289;DHT22;73193;50.866;5.420;2024-01-30T05:35:19;11.60;63.20
83289;DHT22;73193;50.866;5.420;2024-01-30T05:36:51;11.60;63.20
83289;DHT22;73193;50.866;5.420;2024-01-30T05:38:22;11.60;63.40
83289;DHT22;73193;50.866;5.420;2024-01-30T05:39:52;11.60;63.20
83289;DHT22;73193;50.866;5.420;2024-01-30T05:41:23;11.60;63.30
83289;DHT22;73193;50.866;5.420;2024-01-30T05:42:54;11.70;63.40
83289;DHT22;73193;50.866;5.420;2024-01-30T05:44:24;11.70;63.30
83289;DHT22;73193;50.866;5.420;2024-01-30T05:45:55;11.70;63.40
83289;DHT22;73193;50.866;5.420;2024-01-30T05:47:26;11.70;63.40
83289;DHT22;73193;50.866;5.420;2024-01-30T05:48:56;11.70;63.30
83289;DHT22;73193;50.866;5.420;2024-01-30T05:50:27;11.70;63.20
83289;DHT22;73193;50.866;5.420;2024-01-30T05:51:58;11.70;63.20
83289;DHT22;73193;50.866;5.420;2024-01-30T05:53:28;11.70;63.00
83289;DHT22;73193;50.866;5.420;2024-01-30T05:54:59;11.70;63.30
83289;DHT22;73193;50.866;5.420;2024-01-30T05:56:29;11.70;63.30
83289;DHT22;73193;50.866;5.420;2024-01-30T05:58:00;11.60;63.70
83289;DHT22;73193;50.866;5.420;2024-01-30T05:59:31;11.70;63.50
83289;DHT22;73193;50.866;5.420;2024-01-30T06:01:02;11.70;63.30
83289;DHT22;73193;50.866;5.420;2024-01-30T06:02:32;11.70;63.30
83289;DHT22;73193;50.866;5.420;2024-01-30T06:04:03;11.70;63.30
83289;DHT22;73193;50.866;5.420;2024-01-30T06:05:34;11.80;63.20
83289;DHT22;73193;50.866;5.420;2024-01-30T06:07:04;11.80;63.30
83289;DHT22;73193;50.866;5.420;2024-01-30T06:08:36;11.80;63.40
83289;DHT22;73193;50.866;5.420;2024-01-30T06:10:07;11.70;63.40
83289;DHT22;73193;50.866;5.420;2024-01-30T06:11:39;11.70;63.50
83289;DHT22;73193;50.866;5.420;2024-01-30T06:13:09;11.80;63.50
83289;DHT22;73193;50.866;5.420;2024-01-30T06:14:40;11.90;63.40
83289;DHT22;73193;50.866;5.420;2024-01-30T06:16:12;11.90;63.30
83289;DHT22;73193;50.866;5.420;2024-01-30T06:17:43;11.90;63.10
83289;DHT22;73193;50.866;5.420;2024-01-30T06:19:14;11.90;63.40
83289;DHT22;73193;50.866;5.420;2024-01-30T06:20:44;11.90;63.00
83289;DHT22;73193;50.866;5.420;2024-01-30T06:22:16;12.00;63.00
83289;DHT22;73193;50.866;5.420;2024-01-30T06:23:47;12.00;63.00
83289;DHT22;73193;50.866;5.420;2024-01-30T06:25:17;12.00;63.00
83289;DHT22;73193;50.866;5.420;2024-01-30T06:26:48;12.00;63.00
83289;DHT22;73193;50.866;5.420;2024-01-30T06:28:19;11.90;63.10
83289;DHT22;73193;50.866;5.420;2024-01-30T06:29:49;11.90;63.40
83289;DHT22;73193;50.866;5.420;2024-01-30T06:31:20;11.90;63.30
83289;DHT22;73193;50.866;5.420;2024-01-30T06:32:51;11.90;63.20
83289;DHT22;73193;50.866;5.420;2024-01-30T06:34:22;12.00;63.10
83289;DHT22;73193;50.866;5.420;2024-01-30T06:35:52;12.00;63.00
83289;DHT22;73193;50.866;5.420;2024-01-30T06:37:23;11.90;63.20
83289;DHT22;73193;50.866;5.420;2024-01-30T06:38:54;12.00;63.20
83289;DHT22;73193;50.866;5.420;2024-01-30T06:40:24;12.10;62.90
83289;DHT22;73193;50.866;5.420;2024-01-30T06:41:55;12.10;62.70
83289;DHT22;73193;50.866;5.420;2024-01-30T06:43:25;12.10;63.00
83289;DHT22;73193;50.866;5.420;2024-01-30T06:44:56;12.20;62.80
83289;DHT22;73193;50.866;5.420;2024-01-30T06:46:27;12.20;62.60
83289;DHT22;73193;50.866;5.420;2024-01-30T06:47:58;12.20;62.50
83289;DHT22;73193;50.866;5.420;2024-01-30T06:49:28;12.10;62.80
83289;DHT22;73193;50.866;5.420;2024-01-30T06:50:59;11.90;63.00
83289;DHT22;73193;50.866;5.420;2024-01-30T06:52:30;12.00;63.00
83289;DHT22;73193;50.866;5.420;2024-01-30T06:54:00;12.00;63.00
83289;DHT22;73193;50.866;5.420;2024-01-30T06:55:31;12.00;63.10
83289;DHT22;73193;50.866;5.420;2024-01-30T06:57:02;12.10;62.80
83289;DHT22;73193;50.866;5.420;2024-01-30T06:58:32;12.00;63.30
83289;DHT22;73193;50.866;5.420;2024-01-30T07:00:03;12.00;62.90
83289;DHT22;73193;50.866;5.420;2024-01-30T07:01:34;12.00;62.80
83289;DHT22;73193;50.866;5.420;2024-01-30T07:03:05;12.00;62.90
83289;DHT22;73193;50.866;5.420;2024-01-30T07:04:36;12.00;62.90
83289;DHT22;73193;50.866;5.420;2024-01-30T07:06:08;12.00;62.90
83289;DHT22;73193;50.866;5.420;2024-01-30T07:07:39;12.00;62.90
83289;DHT22;73193;50.866;5.420;2024-01-30T07:09:09;12.00;63.00
83289;DHT22;73193;50.866;5.420;2024-01-30T07:10:40;11.90;63.40
83289;DHT22;73193;50.866;5.420;2024-01-30T07:12:11;11.90;63.30
83289;DHT22;73193;50.866;5.420;2024-01-30T07:13:41;12.00;63.20
83289;DHT22;73193;50.866;5.420;2024-01-30T07:15:12;12.00;63.20
83289;DHT22;73193;50.866;5.420;2024-01-30T07:16:46;12.10;63.00
83289;DHT22;73193;50.866;5.420;2024-01-30T07:18:17;12.10;62.90
83289;DHT22;73193;50.866;5.420;2024-01-30T07:19:48;12.20;62.70
83289;DHT22;73193;50.866;5.420;2024-01-30T07:21:18;12.10;62.90
83289;DHT22;73193;50.866;5.420;2024-01-30T07:22:52;12.10;63.00
83289;DHT22;73193;50.866;5.420;2024-01-30T07:24:22;12.10;62.90
83289;DHT22;73193;50.866;5.420;2024-01-30T07:25:53;12.20;62.70
83289;DHT22;73193;50.866;5.420;2024-01-30T07:27:24;12.10;62.80
83289;DHT22;73193;50.866;5.420;2024-01-30T07:28:54;12.10;62.90
83289;DHT22;73193;50.866;5.420;2024-01-30T07:30:25;11.90;63.60
83289;DHT22;73193;50.866;5.420;2024-01-30T07:31:55;12.00;63.40
83289;DHT22;73193;50.866;5.420;2024-01-30T07:33:26;12.00;63.20
83289;DHT22;73193;50.866;5.420;2024-01-30T07:34:57;12.00;63.20
83289;DHT22;73193;50.866;5.420;2024-01-30T07:36:28;12.00;63.00
83289;DHT22;73193;50.866;5.420;2024-01-30T07:37:58;12.00;63.20
83289;DHT22;73193;50.866;5.420;2024-01-30T07:39:29;12.00;63.20
83289;DHT22;73193;50.866;5.420;2024-01-30T07:40:59;12.00;63.00
83289;DHT22;73193;50.866;5.420;2024-01-30T07:42:30;12.00;63.00
83289;DHT22;73193;50.866;5.420;2024-01-30T07:44:02;12.00;63.10
83289;DHT22;73193;50.866;5.420;2024-01-30T07:45:33;12.00;63.10
83289;DHT22;73193;50.866;5.420;2024-01-30T07:47:05;12.00;63.40
83289;DHT22;73193;50.866;5.420;2024-01-30T07:48:36;12.00;63.10
83289;DHT22;73193;50.866;5.420;2024-01-30T07:50:07;12.00;63.00
83289;DHT22;73193;50.866;5.420;2024-01-30T07:51:37;12.10;63.00
83289;DHT22;73193;50.866;5.420;2024-01-30T07:53:08;12.10;63.10
83289;DHT22;73193;50.866;5.420;2024-01-30T07:54:48;12.10;62.90
83289;DHT22;73193;50.866;5.420;2024-01-30T07:56:18;12.10;63.00
83289;DHT22;73193;50.866;5.420;2024-01-30T07:57:49;12.10;63.00
83289;DHT22;73193;50.866;5.420;2024-01-30T07:59:20;12.10;62.90
83289;DHT22;73193;50.866;5.420;2024-01-30T08:00:55;12.10;62.90
83289;DHT22;73193;50.866;5.420;2024-01-30T08:02:28;12.10;63.20
83289;DHT22;73193;50.866;5.420;2024-01-30T08:03:59;12.10;63.00
83289;DHT22;73193;50.866;5.420;2024-01-30T08:05:29;12.20;62.80
83289;DHT22;73193;50.866;5.420;2024-01-30T08:07:00;12.20;63.00
83289;DHT22;73193;50.866;5.420;2024-01-30T08:08:31;12.20;62.90
83289;DHT22;73193;50.866;5.420;2024-01-30T08:10:01;12.30;62.80
83289;DHT22;73193;50.866;5.420;2024-01-30T08:11:32;12.30;62.90
83289;DHT22;73193;50.866;5.420;2024-01-30T08:13:03;12.30;62.80
83289;DHT22;73193;50.866;5.420;2024-01-30T08:14:33;12.40;62.80
83289;DHT22;73193;50.866;5.420;2024-01-30T08:16:04;12.40;62.80
83289;DHT22;73193;50.866;5.420;2024-01-30T08:17:35;12.50;62.70
83289;DHT22;73193;50.866;5.420;2024-01-30T08:19:06;12.40;62.80
83289;DHT22;73193;50.866;5.420;2024-01-30T08:20:37;12.30;63.00
83289;DHT22;73193;50.866;5.420;2024-01-30T08:22:08;12.50;63.00
83289;DHT22;73193;50.866;5.420;2024-01-30T08:23:39;12.50;62.80
83289;DHT22;73193;50.866;5.420;2024-01-30T08:25:10;12.50;62.80
83289;DHT22;73193;50.866;5.420;2024-01-30T08:26:40;12.50;62.70
83289;DHT22;73193;50.866;5.420;2024-01-30T08:28:11;12.50;62.90
83289;DHT22;73193;50.866;5.420;2024-01-30T08:29:42;12.50;62.70
83289;DHT22;73193;50.866;5.420;2024-01-30T08:31:12;12.50;63.00
83289;DHT22;73193;50.866;5.420;2024-01-30T08:32:43;12.50;63.20
83289;DHT22;73193;50.866;5.420;2024-01-30T08:34:14;12.50;63.00
83289;DHT22;73193;50.866;5.420;2024-01-30T08:35:44;12.60;62.90
83289;DHT22;73193;50.866;5.420;2024-01-30T08:37:15;12.70;62.70
83289;DHT22;73193;50.866;5.420;2024-01-30T08:38:46;12.70;62.60
83289;DHT22;73193;50.866;5.420;2024-01-30T08:40:17;12.80;62.60
83289;DHT22;73193;50.866;5.420;2024-01-30T08:41:48;12.80;62.50
83289;DHT22;73193;50.866;5.420;2024-01-30T08:43:18;12.90;62.30
83289;DHT22;73193;50.866;5.420;2024-01-30T08:44:50;12.90;62.40
83289;DHT22;73193;50.866;5.420;2024-01-30T08:46:21;12.90;62.30
83289;DHT22;73193;50.866;5.420;2024-01-30T08:47:52;12.90;62.30
83289;DHT22;73193;50.866;5.420;2024-01-30T08:49:23;13.00;62.20
83289;DHT22;73193;50.866;5.420;2024-01-30T08:50:54;13.10;62.00
83289;DHT22;73193;50.866;5.420;2024-01-30T08:52:24;13.10;61.90
83289;DHT22;73193;50.866;5.420;2024-01-30T08:53:55;13.10;62.00
83289;DHT22;73193;50.866;5.420;2024-01-30T08:55:25;13.10;62.00
83289;DHT22;73193;50.866;5.420;2024-01-30T08:56:56;13.10;62.00
83289;DHT22;73193;50.866;5.420;2024-01-30T08:58:28;13.10;62.10
83289;DHT22;73193;50.866;5.420;2024-01-30T08:59:59;13.10;62.10
83289;DHT22;73193;50.866;5.420;2024-01-30T09:01:30;13.10;62.00
83289;DHT22;73193;50.866;5.420;2024-01-30T09:03:01;13.10;62.30
83289;DHT22;73193;50.866;5.420;2024-01-30T09:04:32;13.10;62.10
83289;DHT22;73193;50.866;5.420;2024-01-30T09:06:03;13.30;61.90
83289;DHT22;73193;50.866;5.420;2024-01-30T09:07:33;13.20;62.10
83289;DHT22;73193;50.866;5.420;2024-01-30T09:09:04;13.30;62.10
83289;DHT22;73193;50.866;5.420;2024-01-30T09:10:36;13.30;62.00
83289;DHT22;73193;50.866;5.420;2024-01-30T09:12:07;13.20;62.00
83289;DHT22;73193;50.866;5.420;2024-01-30T09:13:40;13.20;61.90
83289;DHT22;73193;50.866;5.420;2024-01-30T09:15:11;13.20;62.20
83289;DHT22;73193;50.866;5.420;2024-01-30T09:16:41;13.20;62.10
83289;DHT22;73193;50.866;5.420;2024-01-30T09:18:12;13.20;62.30
83289;DHT22;73193;50.866;5.420;2024-01-30T09:19:43;13.30;62.20
83289;DHT22;73193;50.866;5.420;2024-01-30T09:21:13;13.30;62.00
83289;DHT22;73193;50.866;5.420;2024-01-30T09:22:44;13.40;61.90
83289;DHT22;73193;50.866;5.420;2024-01-30T09:24:15;13.40;61.80
83289;DHT22;73193;50.866;5.420;2024-01-30T09:25:45;13.30;62.20
83289;DHT22;73193;50.866;5.420;2024-01-30T09:27:16;13.40;62.10
83289;DHT22;73193;50.866;5.420;2024-01-30T09:28:46;13.50;61.70
83289;DHT22;73193;50.866;5.420;2024-01-30T09:30:17;13.50;61.90
83289;DHT22;73193;50.866;5.420;2024-01-30T09:31:48;13.50;61.70
83289;DHT22;73193;50.866;5.420;2024-01-30T09:33:18;13.50;61.80